Time;durP1;ratioP1;P1;durP2;ratioP2;P2;SDS_P1;SDS_P2;PMS_P1;PMS_P2;Temp;Humidity;BMP_temperature;BMP_pressure;BME280_temperature;BME280_humidity;BME280_pressure;Samples;Min_cycle;Max_cycle;Signal;HPM_P1;HPM_P2
2023/12/10 00:00:59;;;;;;;17.10;4.53;;;8.10;99.90;;;;;;5064342;28;20036;-83
2023/12/10 00:03:25;;;;;;;18.10;4.55;;;8.10;99.90;;;;;;5048255;28;20086;-83
2023/12/10 00:05:51;;;;;;;17.85;3.60;;;8.10;99.90;;;;;;5038520;28;20119;-83
2023/12/10 00:08:17;;;;;;;17.60;3.80;;;8.10;99.90;;;;;;5049181;28;20518;-83
2023/12/10 00:10:42;;;;;;;16.65;3.67;;;8.10;99.90;;;;;;5065246;28;20134;-84
2023/12/10 00:13:11;;;;;;;17.00;3.65;;;8.10;99.90;;;;;;5064260;28;20033;-83
2023/12/10 00:15:37;;;;;;;18.65;4.35;;;8.10;99.90;;;;;;5081500;28;20063;-83
2023/12/10 00:18:04;;;;;;;18.05;4.30;;;8.10;99.90;;;;;;5050047;28;20118;-84
2023/12/10 00:20:30;;;;;;;16.70;3.28;;;8.10;99.90;;;;;;5048538;28;20623;-83
2023/12/10 00:22:56;;;;;;;19.65;4.30;;;8.10;99.90;;;;;;5047421;28;20127;-83
2023/12/10 00:25:22;;;;;;;18.23;3.75;;;8.10;99.90;;;;;;5047810;28;20167;-84
2023/12/10 00:27:48;;;;;;;15.80;3.67;;;8.10;99.90;;;;;;5033461;28;20055;-84
2023/12/10 00:30:14;;;;;;;15.70;3.58;;;8.10;99.90;;;;;;5045840;28;20513;-83
2023/12/10 00:32:40;;;;;;;15.48;4.93;;;8.20;99.90;;;;;;5046997;28;20558;-83
2023/12/10 00:35:06;;;;;;;19.80;4.68;;;7.80;99.90;;;;;;5045465;28;20128;-83
2023/12/10 00:37:32;;;;;;;21.13;4.47;;;8.20;99.90;;;;;;5030792;28;20055;-84
2023/12/10 00:39:59;;;;;;;16.10;3.95;;;8.20;99.90;;;;;;5048667;28;20497;-83
2023/12/10 00:42:25;;;;;;;16.00;3.95;;;8.20;99.90;;;;;;5049036;28;20556;-84
2023/12/10 00:44:51;;;;;;;15.02;3.17;;;8.30;99.90;;;;;;5080921;28;20460;-83
2023/12/10 00:47:16;;;;;;;16.80;3.88;;;8.30;99.90;;;;;;5049239;28;20036;-84
2023/12/10 00:49:43;;;;;;;17.13;4.13;;;8.20;99.90;;;;;;5030216;28;20069;-83
2023/12/10 00:52:08;;;;;;;22.33;5.32;;;8.30;99.90;;;;;;5032050;28;20036;-83
2023/12/10 00:54:34;;;;;;;14.98;3.92;;;8.20;99.90;;;;;;5031015;28;20044;-83
2023/12/10 00:57:00;;;;;;;16.02;3.85;;;8.30;99.90;;;;;;5048765;28;20458;-83
2023/12/10 00:59:26;;;;;;;18.02;3.97;;;8.30;99.90;;;;;;5062256;28;20033;-84
2023/12/10 01:01:55;;;;;;;17.52;4.13;;;8.30;99.90;;;;;;5048743;28;20036;-84
2023/12/10 01:04:22;;;;;;;14.30;4.13;;;8.20;99.90;;;;;;5028096;28;20028;-83
2023/12/10 01:06:48;;;;;;;14.07;3.90;;;8.20;99.90;;;;;;5032035;28;20043;-83
2023/12/10 01:09:17;;;;;;;19.45;4.82;;;8.20;99.90;;;;;;5043346;28;20110;-83
2023/12/10 01:11:42;;;;;;;17.83;4.47;;;8.20;99.90;;;;;;5046240;28;20040;-83
2023/12/10 01:14:08;;;;;;;13.90;3.28;;;8.20;99.90;;;;;;5047977;28;20070;-84
2023/12/10 01:16:34;;;;;;;14.93;3.88;;;8.20;99.90;;;;;;5027858;28;20047;-84
2023/12/10 01:19:00;;;;;;;14.45;3.63;;;8.20;99.90;;;;;;5014054;28;20064;-84
2023/12/10 01:21:25;;;;;;;13.90;3.35;;;8.20;99.90;;;;;;5045871;28;20084;-83
2023/12/10 01:23:54;;;;;;;14.07;3.70;;;8.20;99.90;;;;;;5030089;28;20431;-83
2023/12/10 01:26:21;;;;;;;14.90;3.60;;;8.20;99.90;;;;;;5046441;28;20051;-83
2023/12/10 01:28:47;;;;;;;15.63;3.22;;;8.10;99.90;;;;;;5047670;28;21265;-83
2023/12/10 01:31:12;;;;;;;16.58;3.85;;;8.00;99.90;;;;;;5091772;28;20072;-83
2023/12/10 01:33:38;;;;;;;17.98;4.05;;;8.00;99.90;;;;;;5031415;28;20032;-83
2023/12/10 01:36:04;;;;;;;14.30;3.50;;;8.00;99.90;;;;;;5030575;28;20465;-83
2023/12/10 01:38:30;;;;;;;14.38;3.40;;;7.90;99.90;;;;;;5064470;28;20044;-83
2023/12/10 01:40:55;;;;;;;15.18;3.55;;;7.90;99.90;;;;;;5046760;28;20040;-83
2023/12/10 01:43:21;;;;;;;13.13;2.85;;;7.90;99.90;;;;;;5062295;28;20066;-83
2023/12/10 01:45:50;;;;;;;14.90;3.13;;;7.30;99.90;;;;;;5032399;28;20111;-83
2023/12/10 01:48:20;;;;;;;14.35;4.13;;;7.90;99.90;;;;;;5081116;28;20049;-82
2023/12/10 01:50:47;;;;;;;14.98;3.17;;;7.90;99.90;;;;;;5063958;28;20102;-83
2023/12/10 01:53:14;;;;;;;16.20;4.35;;;6.80;99.90;;;;;;5046680;28;20028;-82
2023/12/10 01:55:41;;;;;;;14.90;3.60;;;7.80;99.90;;;;;;5047733;28;20048;-82
2023/12/10 01:58:08;;;;;;;14.77;3.30;;;7.80;99.90;;;;;;5027626;28;20029;-83
2023/12/10 02:00:33;;;;;;;16.77;3.15;;;7.80;99.90;;;;;;5052774;28;20052;-82
2023/12/10 02:03:02;;;;;;;16.00;3.83;;;7.80;99.90;;;;;;5029396;28;20043;-82
2023/12/10 02:05:29;;;;;;;14.00;3.60;;;7.80;99.90;;;;;;5047023;28;20078;-82
2023/12/10 02:07:54;;;;;;;16.10;3.55;;;7.80;99.90;;;;;;5046345;28;20082;-82
2023/12/10 02:10:20;;;;;;;13.63;3.45;;;7.70;99.90;;;;;;5046361;28;20037;-82
2023/12/10 02:12:47;;;;;;;21.48;4.95;;;7.70;99.90;;;;;;5026114;28;20359;-82
2023/12/10 02:15:17;;;;;;;12.00;3.50;;;7.70;99.90;;;;;;5035298;28;20094;-82
2023/12/10 02:17:46;;;;;;;11.93;3.20;;;7.70;99.90;;;;;;5050478;28;20063;-82
2023/12/10 02:20:13;;;;;;;13.57;3.30;;;7.70;99.90;;;;;;5068370;28;20074;-82
2023/12/10 02:22:57;;;;;;;14.63;3.25;;;7.70;99.90;;;;;;5089901;28;20083;-82
2023/12/10 02:25:38;;;;;;;13.52;3.47;;;7.70;99.90;;;;;;5071961;28;20032;-82
2023/12/10 02:28:08;;;;;;;16.10;3.30;;;7.70;99.90;;;;;;5055475;28;20127;-82
2023/12/10 02:30:34;;;;;;;16.25;3.40;;;7.70;99.90;;;;;;5054798;28;20040;-82
2023/12/10 02:33:01;;;;;;;15.18;4.28;;;7.80;99.90;;;;;;5066381;28;20075;-82
2023/12/10 02:35:27;;;;;;;14.65;3.47;;;7.70;99.90;;;;;;5036928;28;20485;-82
2023/12/10 02:37:53;;;;;;;12.63;3.35;;;7.70;99.90;;;;;;5037004;28;20051;-82
2023/12/10 02:40:19;;;;;;;13.77;3.55;;;7.70;99.90;;;;;;5066952;28;20065;-82
2023/12/10 02:42:46;;;;;;;13.38;3.13;;;7.70;99.90;;;;;;5038204;28;20040;-82
2023/12/10 02:45:12;;;;;;;13.32;3.83;;;7.70;99.90;;;;;;5035254;28;20036;-82
2023/12/10 02:47:38;;;;;;;17.48;3.72;;;7.70;99.90;;;;;;5071199;28;20078;-82
2023/12/10 02:50:05;;;;;;;14.35;3.80;;;7.70;99.90;;;;;;5068335;28;20516;-82
2023/12/10 02:52:32;;;;;;;15.57;3.03;;;7.70;99.90;;;;;;5038066;28;20044;-82
2023/12/10 02:54:58;;;;;;;19.08;4.10;;;7.70;99.90;;;;;;5067581;28;20052;-82
2023/12/10 02:57:24;;;;;;;13.45;3.60;;;7.70;99.90;;;;;;5055881;28;20056;-82
2023/12/10 02:59:49;;;;;;;16.75;3.38;;;7.70;99.90;;;;;;5036412;28;20032;-82
2023/12/10 03:02:15;;;;;;;15.40;3.83;;;7.70;99.90;;;;;;5053101;28;20036;-82
2023/12/10 03:04:41;;;;;;;15.02;3.50;;;7.70;99.90;;;;;;5053234;28;20036;-82
2023/12/10 03:07:07;;;;;;;14.52;3.15;;;7.70;99.90;;;;;;5053932;28;20036;-82
2023/12/10 03:09:32;;;;;;;15.90;3.33;;;7.70;99.90;;;;;;5035693;28;20052;-82
2023/12/10 03:11:58;;;;;;;15.20;3.35;;;7.70;99.90;;;;;;5067722;28;20417;-82
2023/12/10 03:14:24;;;;;;;14.45;3.05;;;7.70;99.90;;;;;;5053013;28;20036;-82
2023/12/10 03:16:49;;;;;;;13.18;2.78;;;7.70;99.90;;;;;;5034025;28;20114;-82
2023/12/10 03:19:16;;;;;;;14.82;3.30;;;7.70;99.90;;;;;;5069944;28;20114;-82
2023/12/10 03:21:41;;;;;;;15.77;3.75;;;7.70;99.90;;;;;;5037334;28;20063;-82
2023/12/10 03:24:07;;;;;;;14.93;3.00;;;7.70;99.90;;;;;;5051909;28;20032;-82
2023/12/10 03:26:33;;;;;;;16.52;3.33;;;7.70;99.90;;;;;;5053480;28;20039;-82
2023/12/10 03:28:58;;;;;;;11.70;3.17;;;7.70;99.90;;;;;;5039234;28;20051;-82
2023/12/10 03:31:24;;;;;;;14.13;3.53;;;7.70;99.90;;;;;;5037300;28;20046;-81
2023/12/10 03:33:50;;;;;;;9.43;2.72;;;7.70;99.90;;;;;;5035754;28;20766;-82
2023/12/10 03:36:17;;;;;;;12.30;2.83;;;7.70;99.90;;;;;;5037792;28;20574;-82
2023/12/10 03:38:43;;;;;;;14.15;3.25;;;7.70;99.90;;;;;;5053853;28;20043;-82
2023/12/10 03:41:09;;;;;;;10.85;2.67;;;7.70;99.90;;;;;;5036991;28;20047;-82
2023/12/10 03:43:34;;;;;;;11.82;2.75;;;7.70;99.90;;;;;;5035946;28;20158;-82
2023/12/10 03:46:00;;;;;;;14.05;2.92;;;7.60;99.90;;;;;;5036821;28;20110;-82
2023/12/10 03:48:26;;;;;;;12.00;2.40;;;7.60;99.90;;;;;;5053306;28;20058;-83
2023/12/10 03:50:52;;;;;;;9.07;2.22;;;7.60;99.90;;;;;;5042044;28;20093;-82
2023/12/10 03:53:17;;;;;;;13.15;2.80;;;7.60;99.90;;;;;;5068860;28;20031;-82
2023/12/10 03:55:43;;;;;;;11.48;2.80;;;7.60;99.90;;;;;;5055475;28;20032;-82
2023/12/10 03:58:09;;;;;;;8.90;2.08;;;7.60;99.90;;;;;;5036358;28;20036;-82
2023/12/10 04:00:35;;;;;;;10.70;2.50;;;7.60;99.90;;;;;;5053216;28;20046;-82
2023/12/10 04:03:01;;;;;;;9.75;2.67;;;7.60;99.90;;;;;;5050823;28;20048;-82
2023/12/10 04:05:26;;;;;;;9.18;2.20;;;7.60;99.90;;;;;;5068856;28;20051;-81
2023/12/10 04:07:52;;;;;;;7.47;1.67;;;7.60;99.90;;;;;;5068488;28;20066;-82
2023/12/10 04:10:18;;;;;;;7.93;1.90;;;7.60;99.90;;;;;;5052074;28;20113;-82
2023/12/10 04:12:44;;;;;;;7.60;1.88;;;7.60;99.90;;;;;;5051868;28;20048;-82
2023/12/10 04:15:10;;;;;;;9.57;2.80;;;7.70;99.90;;;;;;5055503;28;20044;-82
2023/12/10 04:17:36;;;;;;;8.30;2.15;;;7.60;99.90;;;;;;5037132;28;20144;-82
2023/12/10 04:20:03;;;;;;;6.53;1.92;;;7.60;99.90;;;;;;5019851;28;20515;-82
2023/12/10 04:22:29;;;;;;;9.45;1.95;;;7.60;99.90;;;;;;5030845;28;20048;-81
2023/12/10 04:24:54;;;;;;;7.88;2.03;;;7.60;99.90;;;;;;5048764;28;20666;-82
2023/12/10 04:27:23;;;;;;;3.67;1.48;;;7.60;99.90;;;;;;5047740;28;20374;-82
2023/12/10 04:29:49;;;;;;;6.07;1.67;;;7.70;99.90;;;;;;5032592;28;20040;-83
2023/12/10 04:32:15;;;;;;;7.13;2.03;;;7.60;99.90;;;;;;5045517;28;20069;-82
2023/12/10 04:34:41;;;;;;;5.60;1.48;;;7.60;99.90;;;;;;5015699;28;20682;-82
2023/12/10 04:37:06;;;;;;;6.97;1.92;;;7.70;99.90;;;;;;5048187;28;20170;-83
2023/12/10 04:39:32;;;;;;;7.45;1.52;;;7.70;99.90;;;;;;5065682;28;20039;-82
2023/12/10 04:41:58;;;;;;;7.25;1.98;;;7.70;99.90;;;;;;5033167;28;20078;-82
2023/12/10 04:44:24;;;;;;;6.35;1.60;;;7.70;99.90;;;;;;5048306;28;20112;-82
2023/12/10 04:46:50;;;;;;;6.40;1.60;;;7.70;99.90;;;;;;5049054;28;20040;-82
2023/12/10 04:49:15;;;;;;;4.55;1.40;;;7.70;99.90;;;;;;5015162;28;20050;-83
2023/12/10 04:51:41;;;;;;;4.45;1.40;;;7.70;99.90;;;;;;5032038;28;20094;-82
2023/12/10 04:54:07;;;;;;;4.60;1.38;;;7.70;99.90;;;;;;5047010;28;20456;-83
2023/12/10 04:56:33;;;;;;;6.32;1.70;;;7.80;99.90;;;;;;5031738;28;20045;-82
2023/12/10 04:58:59;;;;;;;5.70;1.98;;;7.80;99.90;;;;;;5063034;28;20064;-83
2023/12/10 05:01:25;;;;;;;6.75;1.70;;;7.80;99.90;;;;;;5030487;28;20498;-83
2023/12/10 05:03:51;;;;;;;5.82;1.60;;;7.80;99.90;;;;;;5048656;28;20105;-82
2023/12/10 05:06:17;;;;;;;5.95;1.60;;;7.80;99.90;;;;;;5031406;28;20040;-83
2023/12/10 05:08:42;;;;;;;5.95;1.60;;;7.80;99.90;;;;;;5063954;28;20044;-83
2023/12/10 05:11:08;;;;;;;5.75;1.60;;;7.90;99.90;;;;;;5031248;28;20506;-83
2023/12/10 05:13:35;;;;;;;5.40;1.60;;;7.90;99.90;;;;;;5065255;28;20588;-83
2023/12/10 05:16:01;;;;;;;4.97;1.58;;;7.90;99.90;;;;;;5031459;28;20040;-83
2023/12/10 05:18:28;;;;;;;6.95;1.75;;;8.00;99.90;;;;;;5032825;28;20056;-83
2023/12/10 05:20:53;;;;;;;8.35;1.80;;;8.00;99.90;;;;;;5064076;28;20048;-84
2023/12/10 05:23:19;;;;;;;6.03;1.77;;;8.00;99.90;;;;;;5032518;28;20097;-83
2023/12/10 05:25:45;;;;;;;7.20;1.80;;;8.00;99.90;;;;;;5047802;28;20071;-83
2023/12/10 05:28:11;;;;;;;11.00;2.22;;;8.00;99.90;;;;;;5031261;28;20075;-83
2023/12/10 05:30:37;;;;;;;10.00;2.40;;;8.00;99.90;;;;;;5031046;28;20029;-83
2023/12/10 05:33:02;;;;;;;8.65;2.30;;;8.10;99.90;;;;;;5049196;28;20052;-83
2023/12/10 05:35:29;;;;;;;8.98;2.28;;;8.10;99.90;;;;;;5030998;28;20040;-83
2023/12/10 05:37:55;;;;;;;10.35;2.00;;;8.10;99.90;;;;;;5063810;28;20914;-83
2023/12/10 05:40:20;;;;;;;8.55;2.28;;;8.10;99.90;;;;;;5047105;28;20041;-83
2023/12/10 05:42:46;;;;;;;8.48;2.05;;;8.10;99.90;;;;;;5048104;28;20045;-84
2023/12/10 05:45:12;;;;;;;8.68;1.88;;;8.10;99.90;;;;;;5047026;28;20041;-84
2023/12/10 05:47:38;;;;;;;7.60;1.85;;;8.10;99.90;;;;;;5080419;28;21782;-84
2023/12/10 05:50:04;;;;;;;7.88;2.03;;;8.10;99.90;;;;;;5028434;28;20128;-84
2023/12/10 05:52:30;;;;;;;6.88;1.70;;;8.10;99.90;;;;;;5032334;28;20043;-84
2023/12/10 05:54:55;;;;;;;8.55;1.80;;;8.10;99.90;;;;;;5047108;28;20533;-84
2023/12/10 05:57:21;;;;;;;6.05;1.88;;;8.10;99.90;;;;;;5031093;28;20556;-84
2023/12/10 05:59:47;;;;;;;6.65;2.10;;;8.10;99.90;;;;;;5030335;28;20278;-84
2023/12/10 06:02:12;;;;;;;8.48;2.10;;;8.10;99.90;;;;;;5043166;28;20069;-84
2023/12/10 06:04:38;;;;;;;8.13;2.05;;;8.10;99.90;;;;;;5030985;28;20386;-84
2023/12/10 06:07:04;;;;;;;9.10;2.17;;;8.10;99.90;;;;;;5032010;28;20041;-84
2023/12/10 06:09:30;;;;;;;6.88;1.70;;;8.10;99.90;;;;;;5031143;28;20162;-83
2023/12/10 06:11:55;;;;;;;7.88;2.03;;;8.10;99.90;;;;;;5047450;28;20037;-83
2023/12/10 06:14:21;;;;;;;8.50;1.83;;;8.10;99.90;;;;;;5031422;28;20045;-83
2023/12/10 06:16:47;;;;;;;9.95;1.65;;;8.10;99.90;;;;;;5032742;28;20494;-84
2023/12/10 06:19:12;;;;;;;8.80;1.88;;;8.20;99.90;;;;;;5048186;28;20490;-83
2023/12/10 06:21:38;;;;;;;9.20;2.15;;;8.20;99.90;;;;;;5012365;28;20691;-83
2023/12/10 06:24:04;;;;;;;7.22;2.00;;;8.20;99.90;;;;;;5061048;28;20529;-84
2023/12/10 06:26:30;;;;;;;11.38;2.17;;;8.20;99.90;;;;;;5030038;28;20029;-84
2023/12/10 06:28:56;;;;;;;11.60;2.60;;;8.20;99.90;;;;;;5047222;28;20516;-84
2023/12/10 06:31:22;;;;;;;9.07;2.30;;;8.20;99.90;;;;;;5046500;28;20041;-84
2023/12/10 06:33:48;;;;;;;10.23;2.40;;;8.20;99.90;;;;;;5045834;28;20047;-84
2023/12/10 06:36:14;;;;;;;8.95;2.13;;;8.20;99.90;;;;;;5046336;28;20047;-84
2023/12/10 06:38:40;;;;;;;10.45;2.78;;;8.20;99.90;;;;;;5059158;28;20112;-84
2023/12/10 06:41:08;;;;;;;8.95;2.10;;;8.20;99.90;;;;;;5062768;28;20066;-84
2023/12/10 06:43:34;;;;;;;9.95;2.35;;;8.20;99.90;;;;;;5045882;28;20464;-83
2023/12/10 06:46:00;;;;;;;8.40;2.28;;;8.20;99.90;;;;;;5045803;28;20040;-83
2023/12/10 06:48:25;;;;;;;12.07;2.60;;;8.30;99.90;;;;;;5077900;28;20039;-84
2023/12/10 06:50:52;;;;;;;17.05;2.85;;;8.20;99.90;;;;;;5046604;28;20048;-84
2023/12/10 06:53:18;;;;;;;11.07;2.70;;;8.30;99.90;;;;;;5047020;28;20045;-84
2023/12/10 06:55:44;;;;;;;17.52;4.38;;;8.30;99.90;;;;;;5027737;28;20395;-84
2023/12/10 06:58:10;;;;;;;15.70;3.13;;;8.30;99.90;;;;;;5013730;28;20094;-84
2023/12/10 07:00:35;;;;;;;12.80;2.60;;;8.30;99.90;;;;;;5031428;28;20041;-84
2023/12/10 07:03:01;;;;;;;13.20;3.28;;;8.30;99.90;;;;;;5045549;28;20039;-83
2023/12/10 07:05:27;;;;;;;10.55;2.58;;;8.30;99.90;;;;;;5014405;28;20036;-83
2023/12/10 07:07:53;;;;;;;15.07;3.75;;;8.40;99.90;;;;;;5034312;28;20036;-84
2023/12/10 07:10:18;;;;;;;12.60;2.58;;;8.40;99.90;;;;;;5079106;28;20036;-85
2023/12/10 07:12:44;;;;;;;14.27;3.30;;;8.40;99.90;;;;;;5077061;28;20116;-84
2023/12/10 07:15:10;;;;;;;11.27;2.90;;;8.40;99.90;;;;;;5044849;28;20107;-84
2023/12/10 07:17:36;;;;;;;13.52;2.95;;;8.40;99.90;;;;;;5070336;28;20074;-84
2023/12/10 07:20:03;;;;;;;13.50;2.95;;;8.40;99.90;;;;;;5063386;28;20074;-84
2023/12/10 07:22:29;;;;;;;13.82;3.13;;;8.40;99.90;;;;;;5045225;28;20052;-84
2023/12/10 07:24:55;;;;;;;9.88;2.38;;;8.40;99.90;;;;;;5082396;28;20039;-84
2023/12/10 07:27:21;;;;;;;10.50;2.70;;;8.40;99.90;;;;;;5065761;28;20032;-85
2023/12/10 07:29:47;;;;;;;9.90;2.33;;;8.40;99.90;;;;;;5048357;28;20130;-86
2023/12/10 07:32:13;;;;;;;11.23;2.42;;;8.40;99.90;;;;;;5092732;28;20070;-84
2023/12/10 07:34:39;;;;;;;10.10;2.80;;;8.40;99.90;;;;;;5080373;28;20032;-84
2023/12/10 07:37:05;;;;;;;9.85;2.33;;;8.50;99.90;;;;;;5047966;28;20028;-84
2023/12/10 07:39:30;;;;;;;11.80;2.58;;;8.50;99.90;;;;;;5065818;28;20031;-84
2023/12/10 07:41:56;;;;;;;12.45;2.65;;;8.50;99.90;;;;;;5065182;28;20024;-85
2023/12/10 07:44:23;;;;;;;13.48;2.80;;;8.40;99.90;;;;;;5047473;28;20044;-84
2023/12/10 07:46:49;;;;;;;12.35;2.80;;;8.50;99.90;;;;;;5048769;28;20091;-84
2023/12/10 07:49:14;;;;;;;9.75;2.53;;;8.50;99.90;;;;;;5048164;28;20069;-84
2023/12/10 07:51:40;;;;;;;11.85;2.78;;;8.50;99.90;;;;;;5065578;28;20031;-83
2023/12/10 07:54:06;;;;;;;11.13;2.42;;;8.50;99.90;;;;;;5050369;28;20091;-84
2023/12/10 07:56:31;;;;;;;10.57;2.58;;;8.50;99.90;;;;;;5066552;28;20251;-84
2023/12/10 07:58:57;;;;;;;9.43;3.03;;;8.50;99.90;;;;;;5064840;28;20062;-83
2023/12/10 08:01:23;;;;;;;10.00;2.25;;;8.60;99.90;;;;;;5065686;28;20024;-84
2023/12/10 08:03:49;;;;;;;8.82;2.25;;;8.60;99.90;;;;;;5067558;28;20028;-84
2023/12/10 08:06:14;;;;;;;7.95;2.10;;;8.50;99.90;;;;;;5048979;28;20069;-84
2023/12/10 08:08:40;;;;;;;8.63;1.90;;;8.60;99.90;;;;;;5063244;28;20278;-86
2023/12/10 08:11:06;;;;;;;8.32;2.45;;;8.50;99.90;;;;;;5051248;28;20221;-84
2023/12/10 08:13:32;;;;;;;6.80;1.80;;;8.50;99.90;;;;;;5033875;28;20051;-84
2023/12/10 08:15:57;;;;;;;9.43;2.08;;;8.50;99.90;;;;;;5069007;28;20028;-83
2023/12/10 08:18:24;;;;;;;10.25;2.10;;;8.50;99.90;;;;;;5065955;28;20221;-83
2023/12/10 08:20:50;;;;;;;12.80;2.40;;;8.60;99.90;;;;;;5064614;28;20056;-83
2023/12/10 08:23:15;;;;;;;11.88;2.95;;;8.50;99.90;;;;;;5048108;28;20031;-83
2023/12/10 08:25:41;;;;;;;9.55;2.33;;;8.50;99.90;;;;;;5048284;28;20198;-83
2023/12/10 08:28:07;;;;;;;10.10;2.20;;;8.50;99.90;;;;;;5049484;28;20028;-83
2023/12/10 08:30:33;;;;;;;11.57;2.50;;;8.50;99.90;;;;;;5048535;28;20162;-84
2023/12/10 08:32:59;;;;;;;8.05;1.95;;;8.50;99.90;;;;;;5045230;28;20119;-82
2023/12/10 08:35:25;;;;;;;7.00;2.03;;;8.60;99.90;;;;;;5064863;28;20031;-82
2023/12/10 08:37:50;;;;;;;6.28;1.70;;;8.60;99.90;;;;;;5082668;28;20044;-83
2023/12/10 08:40:16;;;;;;;10.32;2.17;;;8.60;99.90;;;;;;5063834;28;20051;-83
2023/12/10 08:42:42;;;;;;;6.70;1.90;;;8.60;99.90;;;;;;5081145;28;20040;-83
2023/12/10 08:45:08;;;;;;;9.13;2.13;;;8.60;99.90;;;;;;5063839;28;20051;-84
2023/12/10 08:47:35;;;;;;;9.57;2.72;;;8.60;99.90;;;;;;5082923;28;20028;-83
2023/12/10 08:50:03;;;;;;;11.05;2.15;;;8.60;99.90;;;;;;5064466;28;20052;-83
2023/12/10 08:52:29;;;;;;;8.50;2.35;;;8.60;99.90;;;;;;5079186;28;20024;-84
2023/12/10 08:54:55;;;;;;;8.80;2.50;;;8.50;99.90;;;;;;5051011;28;20085;-84
2023/12/10 08:57:23;;;;;;;9.80;2.50;;;8.50;99.90;;;;;;5064300;28;20039;-83
2023/12/10 08:59:49;;;;;;;12.63;2.47;;;8.50;99.90;;;;;;5058739;28;20246;-84
2023/12/10 09:02:16;;;;;;;8.70;2.00;;;8.50;99.90;;;;;;5063865;28;20099;-83
2023/12/10 09:04:41;;;;;;;7.50;2.08;;;8.50;99.90;;;;;;5066503;28;20126;-85
2023/12/10 09:07:07;;;;;;;9.18;2.05;;;8.50;99.90;;;;;;5047064;28;20028;-84
2023/12/10 09:09:33;;;;;;;8.90;2.13;;;8.50;99.90;;;;;;5083802;28;20069;-84
2023/12/10 09:11:59;;;;;;;8.30;1.90;;;8.40;99.90;;;;;;5047629;28;20031;-84
2023/12/10 09:14:25;;;;;;;10.35;2.63;;;8.50;99.90;;;;;;5082304;28;20063;-84
2023/12/10 09:16:51;;;;;;;14.85;2.60;;;8.40;99.90;;;;;;5065032;28;20108;-85
2023/12/10 09:19:17;;;;;;;13.77;3.15;;;8.40;99.90;;;;;;5064239;28;20035;-84
2023/12/10 09:21:46;;;;;;;13.63;3.55;;;8.40;99.90;;;;;;5047307;28;20304;-83
2023/12/10 09:24:12;;;;;;;15.23;3.70;;;8.50;99.90;;;;;;5063608;28;20067;-83
2023/12/10 09:26:37;;;;;;;14.30;2.65;;;8.50;99.90;;;;;;5081127;28;20505;-83
2023/12/10 09:29:03;;;;;;;19.35;3.47;;;8.40;99.90;;;;;;5059034;28;20115;-84
2023/12/10 09:31:29;;;;;;;16.33;3.10;;;8.50;99.90;;;;;;5063416;28;20035;-83
2023/12/10 09:33:55;;;;;;;13.07;2.88;;;8.40;99.90;;;;;;5077628;28;20038;-83
2023/12/10 09:36:21;;;;;;;13.25;2.83;;;8.40;99.90;;;;;;5046997;28;20111;-83
2023/12/10 09:38:46;;;;;;;10.93;2.67;;;8.40;99.90;;;;;;5046196;28;20039;-84
2023/12/10 09:41:12;;;;;;;10.95;2.60;;;8.40;99.90;;;;;;5029409;28;20046;-84
2023/12/10 09:43:38;;;;;;;12.00;2.20;;;8.40;99.90;;;;;;5029404;28;20044;-83
2023/12/10 09:46:03;;;;;;;12.15;2.60;;;8.30;99.90;;;;;;5059028;28;20059;-83
2023/12/10 09:48:30;;;;;;;13.63;2.95;;;8.40;99.90;;;;;;5046622;28;20658;-83
2023/12/10 09:50:56;;;;;;;11.05;2.67;;;8.30;99.90;;;;;;5094142;28;20027;-83
2023/12/10 09:53:22;;;;;;;12.23;2.50;;;8.30;99.90;;;;;;5078242;28;20174;-83
2023/12/10 09:55:51;;;;;;;13.38;2.60;;;8.40;99.90;;;;;;5047048;28;20064;-83
2023/12/10 09:58:17;;;;;;;9.30;2.10;;;8.40;99.90;;;;;;5063779;28;20304;-83
2023/12/10 10:00:42;;;;;;;13.32;2.20;;;8.40;99.90;;;;;;5061403;28;20035;-83
2023/12/10 10:03:10;;;;;;;12.23;2.60;;;8.40;99.90;;;;;;5062801;28;20040;-83
2023/12/10 10:05:36;;;;;;;9.68;2.63;;;8.40;99.90;;;;;;5095715;28;20036;-84
2023/12/10 10:08:02;;;;;;;12.60;3.00;;;8.40;99.90;;;;;;5064721;28;20039;-84
2023/12/10 10:10:29;;;;;;;10.48;2.20;;;8.40;99.90;;;;;;5062981;28;20046;-83
2023/12/10 10:12:55;;;;;;;16.30;2.70;;;8.40;99.90;;;;;;5045701;28;20108;-83
2023/12/10 10:15:29;;;;;;;14.73;2.97;;;8.40;99.90;;;;;;5062492;28;20317;-84
2023/12/10 10:17:55;;;;;;;14.38;3.20;;;8.40;99.90;;;;;;5064949;28;20028;-84
2023/12/10 10:20:22;;;;;;;14.57;3.53;;;8.40;99.90;;;;;;5064432;28;20251;-83
2023/12/10 10:22:49;;;;;;;9.75;2.53;;;8.40;99.90;;;;;;5062810;28;20281;-83
2023/12/10 10:25:15;;;;;;;13.60;2.70;;;8.40;99.90;;;;;;5064071;28;20032;-83
2023/12/10 10:27:40;;;;;;;11.93;2.40;;;8.40;99.90;;;;;;5080202;28;20352;-84
2023/12/10 10:30:07;;;;;;;9.45;2.22;;;8.40;99.90;;;;;;5046124;28;20043;-83
2023/12/10 10:32:33;;;;;;;13.68;2.78;;;8.40;99.90;;;;;;5063373;28;20028;-84
2023/12/10 10:35:04;;;;;;;9.95;2.67;;;8.40;99.90;;;;;;5063718;28;20133;-83
2023/12/10 10:37:30;;;;;;;11.93;3.17;;;8.40;99.90;;;;;;5066654;28;20040;-83
2023/12/10 10:39:56;;;;;;;10.77;2.72;;;8.30;99.90;;;;;;5054059;28;20122;-83
2023/12/10 10:42:22;;;;;;;9.88;2.50;;;8.40;99.90;;;;;;5049120;28;20285;-83
2023/12/10 10:44:48;;;;;;;13.35;3.00;;;8.40;99.90;;;;;;5045523;28;20040;-83
2023/12/10 10:47:18;;;;;;;10.50;2.42;;;8.40;99.90;;;;;;5050575;28;20031;-83
2023/12/10 10:49:57;;;;;;;11.77;3.28;;;8.30;99.90;;;;;;5085105;28;20031;-83
2023/12/10 10:52:28;;;;;;;15.15;2.85;;;8.30;99.90;;;;;;5065856;28;20051;-83
2023/12/10 10:54:55;;;;;;;15.68;2.90;;;8.40;99.90;;;;;;5064919;28;20032;-83
2023/12/10 10:57:34;;;;;;;13.98;3.55;;;8.40;99.90;;;;;;5063653;28;20186;-84
2023/12/10 11:00:10;;;;;;;19.92;3.40;;;8.40;99.90;;;;;;5063499;28;20051;-83
2023/12/10 11:02:35;;;;;;;13.45;3.42;;;8.50;99.90;;;;;;5063219;28;20039;-83
2023/12/10 11:05:01;;;;;;;15.20;3.55;;;8.50;99.90;;;;;;5064501;28;20063;-83
2023/12/10 11:07:27;;;;;;;17.38;3.78;;;8.50;99.90;;;;;;5048619;28;20028;-83
2023/12/10 11:10:01;;;;;;;16.67;4.40;;;8.50;99.90;;;;;;5067409;28;20087;-84
2023/12/10 11:12:39;;;;;;;14.88;3.83;;;8.50;99.90;;;;;;5083158;28;20097;-83
2023/12/10 11:15:20;;;;;;;15.93;3.75;;;8.50;99.90;;;;;;5082426;28;20067;-83
2023/12/10 11:17:57;;;;;;;14.85;3.83;;;8.50;99.90;;;;;;5081120;28;20220;-83
2023/12/10 11:20:33;;;;;;;19.33;4.85;;;8.50;99.90;;;;;;5063603;28;20220;-82
2023/12/10 11:23:04;;;;;;;17.77;3.90;;;8.50;99.90;;;;;;5082556;28;20186;-83
2023/12/10 11:25:31;;;;;;;23.33;3.70;;;8.50;99.90;;;;;;5065962;28;20020;-83
2023/12/10 11:27:57;;;;;;;18.48;3.78;;;8.50;99.90;;;;;;5082726;28;20176;-83
2023/12/10 11:30:25;;;;;;;16.30;3.70;;;8.50;99.90;;;;;;5049160;28;20069;-83
2023/12/10 11:32:50;;;;;;;17.42;3.92;;;8.50;99.90;;;;;;5065018;28;20258;-83
2023/12/10 11:35:17;;;;;;;18.88;4.47;;;8.50;99.90;;;;;;5061367;28;20039;-83
2023/12/10 11:37:43;;;;;;;15.68;4.35;;;8.50;99.90;;;;;;5032267;28;20043;-83
2023/12/10 11:40:10;;;;;;;18.88;3.88;;;8.50;99.90;;;;;;5066318;28;20112;-83
2023/12/10 11:42:36;;;;;;;18.35;4.13;;;8.60;99.90;;;;;;5066134;28;20024;-83
2023/12/10 11:45:03;;;;;;;19.50;4.28;;;8.60;99.90;;;;;;5063348;28;20185;-83
2023/12/10 11:47:30;;;;;;;15.15;3.90;;;8.60;99.90;;;;;;5080380;28;20176;-83
2023/12/10 11:49:55;;;;;;;18.90;3.78;;;8.60;99.90;;;;;;5047225;28;20043;-83
2023/12/10 11:52:21;;;;;;;17.35;3.45;;;8.70;99.90;;;;;;5038371;28;20266;-83
2023/12/10 11:54:48;;;;;;;20.27;4.00;;;8.70;99.90;;;;;;5063260;28;20021;-84
2023/12/10 11:57:13;;;;;;;16.38;3.58;;;8.70;99.90;;;;;;5065063;28;20027;-84
2023/12/10 11:59:39;;;;;;;16.65;4.05;;;8.70;99.90;;;;;;5062221;28;20063;-83
2023/12/10 12:02:06;;;;;;;16.95;4.10;;;8.70;99.90;;;;;;5047868;28;20304;-84
2023/12/10 12:04:33;;;;;;;17.58;4.28;;;8.70;99.90;;;;;;5049647;28;20035;-84
2023/12/10 12:06:59;;;;;;;17.10;3.70;;;8.70;99.90;;;;;;5065304;28;20089;-84
2023/12/10 12:09:25;;;;;;;17.58;4.10;;;8.70;99.90;;;;;;5043319;28;20068;-84
2023/12/10 12:11:51;;;;;;;21.65;4.45;;;8.70;99.90;;;;;;5064962;28;20020;-84
2023/12/10 12:14:19;;;;;;;16.85;4.05;;;8.70;99.90;;;;;;5045946;28;20054;-84
2023/12/10 12:16:48;;;;;;;20.60;3.60;;;8.60;99.90;;;;;;5048261;28;20024;-84
2023/12/10 12:19:26;;;;;;;18.08;3.92;;;8.20;99.90;;;;;;5064828;28;20143;-84
2023/12/10 12:21:52;;;;;;;21.35;4.13;;;8.60;99.90;;;;;;5074349;28;20184;-84
2023/12/10 12:24:18;;;;;;;18.33;3.80;;;8.60;99.90;;;;;;5058429;28;20185;-83
2023/12/10 12:26:44;;;;;;;16.48;3.90;;;8.60;99.90;;;;;;5081529;28;20167;-83
2023/12/10 12:29:10;;;;;;;20.27;4.32;;;8.50;99.90;;;;;;5064480;28;20032;-83
2023/12/10 12:31:38;;;;;;;17.27;4.07;;;8.50;99.90;;;;;;5049798;28;20047;-84
2023/12/10 12:34:03;;;;;;;18.27;4.55;;;8.50;99.90;;;;;;5045781;28;20066;-84
2023/12/10 12:36:29;;;;;;;23.17;4.82;;;8.50;99.90;;;;;;5048497;28;20047;-83
2023/12/10 12:38:55;;;;;;;20.63;3.95;;;8.40;99.90;;;;;;5081678;28;20031;-84
2023/12/10 12:41:21;;;;;;;22.40;4.40;;;8.50;99.90;;;;;;5048701;28;20082;-84
2023/12/10 12:43:46;;;;;;;21.60;4.85;;;8.50;99.90;;;;;;5062973;28;20334;-84
2023/12/10 12:46:14;;;;;;;15.95;3.60;;;8.40;99.90;;;;;;5050912;28;20032;-84